createdAt,value
2023-05-14T00:01:23.667Z,6.15
2023-05-14T00:06:25.279Z,6.18
2023-05-14T00:11:26.736Z,3.78
2023-05-14T00:16:28.203Z,5.22
2023-05-14T00:21:29.668Z,5.57
2023-05-14T00:26:31.116Z,5.38
2023-05-14T00:31:32.675Z,3.58
2023-05-14T00:36:34.186Z,4.60
2023-05-14T00:41:35.728Z,4.90
2023-05-14T00:46:37.294Z,5.10
2023-05-14T00:51:41.432Z,4.93
2023-05-14T00:56:45.320Z,5.00
2023-05-14T01:01:46.797Z,5.18
2023-05-14T01:07:09.471Z,5.63
2023-05-14T01:12:34.598Z,5.68
2023-05-14T01:17:42.671Z,4.43
2023-05-14T01:22:44.189Z,6.65
2023-05-14T01:28:05.844Z,5.22
2023-05-14T01:33:11.160Z,6.07
2023-05-14T01:38:14.974Z,5.82
2023-05-14T01:43:17.101Z,5.43
2023-05-14T01:48:18.913Z,5.60
2023-05-14T01:53:20.639Z,6.13
2023-05-14T01:58:22.223Z,5.82
2023-05-14T02:03:23.681Z,6.30
2023-05-14T02:08:25.282Z,5.43
2023-05-14T02:13:26.855Z,5.47
2023-05-14T02:18:28.275Z,5.78
2023-05-14T02:23:40.479Z,5.60
2023-05-14T02:28:42.838Z,4.65
2023-05-14T02:33:44.363Z,6.03
2023-05-14T02:38:45.884Z,5.70
2023-05-14T02:43:47.342Z,5.53
2023-05-14T02:48:49.144Z,5.45
2023-05-14T02:53:50.607Z,6.45
2023-05-14T02:58:52.188Z,5.97
2023-05-14T03:03:53.639Z,5.88
2023-05-14T03:08:55.121Z,6.80
2023-05-14T03:13:56.667Z,7.05
2023-05-14T03:18:58.163Z,4.57
2023-05-14T03:23:59.661Z,6.60
2023-05-14T03:29:02.101Z,5.90
2023-05-14T03:34:03.637Z,5.68
2023-05-14T03:39:06.964Z,5.75
2023-05-14T03:44:10.327Z,5.68
2023-05-14T03:49:11.914Z,6.68
2023-05-14T03:54:13.569Z,6.15
2023-05-14T03:59:15.102Z,5.85
2023-05-14T04:04:16.603Z,5.90
2023-05-14T04:09:18.069Z,6.57
2023-05-14T04:14:19.535Z,6.32
2023-05-14T04:19:21.006Z,6.78
2023-05-14T04:24:22.499Z,6.22
2023-05-14T04:29:23.925Z,6.50
2023-05-14T04:34:26.113Z,6.15
2023-05-14T04:39:27.534Z,5.90
2023-05-14T04:44:28.970Z,6.65
2023-05-14T04:49:30.924Z,7.07
2023-05-14T04:54:32.527Z,7.63
2023-05-14T04:59:34.028Z,9.07
2023-05-14T05:04:35.457Z,5.50
2023-05-14T05:09:36.879Z,7.20
2023-05-14T05:14:38.337Z,7.03
2023-05-14T05:19:43.875Z,8.50
2023-05-14T05:24:46.469Z,9.45
2023-05-14T05:29:48.473Z,7.90
2023-05-14T05:34:51.842Z,8.43
2023-05-14T05:39:53.961Z,10.27
2023-05-14T05:44:56.238Z,8.98
2023-05-14T05:49:57.734Z,10.05
2023-05-14T05:54:59.160Z,4.70
2023-05-14T06:00:01.036Z,8.80
2023-05-14T06:05:02.522Z,9.10
2023-05-14T06:10:04.751Z,8.02
2023-05-14T06:15:06.929Z,7.90
2023-05-14T06:20:08.969Z,6.43
2023-05-14T06:25:10.892Z,5.90
2023-05-14T06:30:13.019Z,7.15
2023-05-14T06:35:14.544Z,6.75
2023-05-14T06:40:16.103Z,6.85
2023-05-14T06:45:17.622Z,6.05
2023-05-14T06:50:19.352Z,5.88
2023-05-14T06:55:20.883Z,6.55
2023-05-14T07:00:22.783Z,6.93
2023-05-14T07:05:25.075Z,7.07
2023-05-14T07:10:26.723Z,6.38
2023-05-14T07:15:28.262Z,5.90
2023-05-14T07:20:29.708Z,5.75
2023-05-14T07:25:32.617Z,4.63
2023-05-14T07:30:34.060Z,5.65
2023-05-14T07:35:35.558Z,4.97
2023-05-14T07:40:36.990Z,4.57
2023-05-14T07:45:41.393Z,3.80
2023-05-14T07:50:43.001Z,4.40
2023-05-14T07:55:45.333Z,4.20
2023-05-14T08:00:46.794Z,4.40
2023-05-14T08:06:34.053Z,3.97
2023-05-14T08:11:36.516Z,3.92
2023-05-14T08:16:38.761Z,3.78
2023-05-14T08:21:40.260Z,4.13
2023-05-14T08:26:41.910Z,3.83
2023-05-14T08:31:43.491Z,3.67
2023-05-14T08:36:44.956Z,3.58
2023-05-14T08:41:46.571Z,3.67
2023-05-14T08:46:49.752Z,3.72
2023-05-14T08:51:51.343Z,3.80
2023-05-14T08:56:53.524Z,2.92
2023-05-14T09:01:56.649Z,3.20
2023-05-14T09:07:01.193Z,3.42
2023-05-14T09:12:02.772Z,3.35
2023-05-14T09:17:04.317Z,3.38
2023-05-14T09:22:09.289Z,3.78
2023-05-14T09:27:22.133Z,3.78
2023-05-14T09:32:23.583Z,3.33
2023-05-14T09:37:26.051Z,3.30
2023-05-14T09:42:27.986Z,3.10
2023-05-14T09:47:29.519Z,2.78
2023-05-14T09:52:31.197Z,2.70
2023-05-14T09:57:33.517Z,3.00
2023-05-14T10:02:41.076Z,3.00
2023-05-14T10:07:47.587Z,2.95
2023-05-14T10:12:53.513Z,2.60
2023-05-14T10:17:58.640Z,2.90
2023-05-14T10:23:01.018Z,2.85
2023-05-14T10:28:03.057Z,2.97
2023-05-14T10:33:16.538Z,2.67
2023-05-14T10:38:21.896Z,2.85
2023-05-14T10:43:26.934Z,2.78
2023-05-14T10:48:28.954Z,2.90
2023-05-14T10:53:35.800Z,2.80
2023-05-14T10:58:39.204Z,3.47
2023-05-14T11:03:46.175Z,2.50
2023-05-14T11:08:50.422Z,3.08
2023-05-14T11:13:53.597Z,3.53
2023-05-14T11:19:05.068Z,2.78
2023-05-14T11:24:07.406Z,3.78
2023-05-14T11:29:10.499Z,3.05
2023-05-14T11:34:11.962Z,2.88
2023-05-14T11:39:19.550Z,3.00
2023-05-14T11:44:21.146Z,3.05
2023-05-14T11:49:24.166Z,2.85
2023-05-14T11:54:27.535Z,2.70
2023-05-14T11:59:31.685Z,3.10
2023-05-14T12:04:33.300Z,3.20
2023-05-14T12:09:39.204Z,2.50
2023-05-14T12:14:42.667Z,3.28
2023-05-14T12:19:46.000Z,2.83
2023-05-14T12:24:58.130Z,3.50
2023-05-14T12:30:19.123Z,2.50
2023-05-14T12:35:22.901Z,2.63
2023-05-14T12:40:25.229Z,2.38
2023-05-14T12:45:26.958Z,2.70
2023-05-14T12:50:28.434Z,2.80
2023-05-14T12:55:29.992Z,2.60
2023-05-14T13:00:31.433Z,2.35
2023-05-14T13:05:33.276Z,2.28
2023-05-14T13:10:34.729Z,2.60
2023-05-14T13:15:36.162Z,2.67
2023-05-14T13:20:37.602Z,3.05
2023-05-14T13:25:39.164Z,2.30
2023-05-14T13:30:40.645Z,2.67
2023-05-14T13:35:42.086Z,2.38
2023-05-14T13:40:43.509Z,2.70
2023-05-14T13:45:44.949Z,2.42
2023-05-14T13:50:46.377Z,2.90
2023-05-14T13:55:49.290Z,2.88
2023-05-14T14:00:51.887Z,2.88
2023-05-14T14:05:53.357Z,2.60
2023-05-14T14:10:55.475Z,3.20
2023-05-14T14:15:57.317Z,2.80
2023-05-14T14:20:58.800Z,3.10
2023-05-14T14:26:07.105Z,3.28
2023-05-14T14:36:09.967Z,3.08
2023-05-14T14:41:11.468Z,2.33
2023-05-14T14:46:13.758Z,3.25
2023-05-14T14:51:15.356Z,2.67
2023-05-14T14:56:16.829Z,2.53
2023-05-14T15:01:18.472Z,2.65
2023-05-14T15:06:19.966Z,2.88
2023-05-14T15:11:21.999Z,2.53
2023-05-14T15:16:23.510Z,2.50
2023-05-14T15:21:25.035Z,3.00
2023-05-14T15:26:26.698Z,2.70
2023-05-14T15:31:28.259Z,2.08
2023-05-14T15:36:29.771Z,2.40
2023-05-14T15:41:31.493Z,2.83
2023-05-14T15:46:33.085Z,3.45
2023-05-14T15:51:34.813Z,3.45
2023-05-14T15:56:36.242Z,3.45
2023-05-14T16:01:37.759Z,3.85
2023-05-14T16:06:41.871Z,2.58
2023-05-14T16:11:43.303Z,2.55
2023-05-14T16:16:44.825Z,3.45
2023-05-14T16:21:46.300Z,3.65
2023-05-14T16:26:47.845Z,4.05
2023-05-14T16:31:49.556Z,3.60
2023-05-14T16:36:51.077Z,3.28
2023-05-14T16:41:52.598Z,2.33
2023-05-14T16:46:54.068Z,2.42
2023-05-14T16:51:55.605Z,4.13
2023-05-14T17:03:28.653Z,3.92
2023-05-14T17:08:33.382Z,2.97
2023-05-14T17:13:34.837Z,2.30
2023-05-14T17:18:36.330Z,2.20
2023-05-14T17:23:37.937Z,2.30
2023-05-14T17:28:39.592Z,3.00
2023-05-14T17:33:41.057Z,2.85
2023-05-14T17:38:42.485Z,2.53
2023-05-14T17:50:40.138Z,2.60
2023-05-14T17:55:43.578Z,2.30
2023-05-14T18:00:45.110Z,2.20
2023-05-14T18:05:46.559Z,2.15
2023-05-14T18:10:47.988Z,2.47
2023-05-14T18:15:51.539Z,2.45
2023-05-14T18:20:53.351Z,2.67
2023-05-14T18:25:54.833Z,3.00
2023-05-14T18:30:56.324Z,2.88
2023-05-14T18:35:57.976Z,2.63
2023-05-14T18:40:59.450Z,2.72
2023-05-14T18:46:00.975Z,2.33
2023-05-14T18:51:02.403Z,2.40
2023-05-14T18:56:04.239Z,2.38
2023-05-14T19:01:05.799Z,2.95
2023-05-14T19:06:07.570Z,2.72
2023-05-14T19:11:09.001Z,2.85
2023-05-14T19:16:11.133Z,2.92
2023-05-14T19:21:14.762Z,2.67
2023-05-14T19:26:16.215Z,2.85
2023-05-14T19:31:17.837Z,2.80
2023-05-14T19:36:20.376Z,2.25
2023-05-14T19:41:21.811Z,2.25
2023-05-14T19:46:23.314Z,2.50
2023-05-14T19:51:25.388Z,3.97
2023-05-14T19:56:27.760Z,3.95
2023-05-14T20:01:29.426Z,2.97
2023-05-14T20:06:32.028Z,2.65
2023-05-14T20:11:33.480Z,2.75
2023-05-14T20:16:34.918Z,2.42
2023-05-14T20:21:36.345Z,2.45
2023-05-14T20:26:37.790Z,2.10
2023-05-14T20:31:39.217Z,2.83
2023-05-14T20:36:41.749Z,2.50
2023-05-14T20:41:45.480Z,2.20
2023-05-14T20:46:47.050Z,2.25
2023-05-14T20:51:48.498Z,2.17
2023-05-14T20:56:50.335Z,2.00
2023-05-14T21:01:51.859Z,2.33
2023-05-14T21:06:53.970Z,2.10
2023-05-14T21:11:55.451Z,2.38
2023-05-14T21:16:56.925Z,2.17
2023-05-14T21:21:58.346Z,2.85
2023-05-14T21:26:59.793Z,2.42
2023-05-14T21:32:01.258Z,2.00
2023-05-14T21:37:03.437Z,2.65
2023-05-14T21:42:05.132Z,2.22
2023-05-14T21:47:07.678Z,2.80
2023-05-14T21:52:09.119Z,1.88
2023-05-14T21:57:10.578Z,2.20
2023-05-14T22:02:12.088Z,2.47
2023-05-14T22:07:13.641Z,2.53
2023-05-14T22:12:15.072Z,2.53
2023-05-14T22:17:16.622Z,2.47
2023-05-14T22:22:18.062Z,3.10
2023-05-14T22:27:19.589Z,2.72
2023-05-14T22:32:21.291Z,3.10
2023-05-14T22:37:22.732Z,3.13
2023-05-14T22:42:24.216Z,2.50
2023-05-14T22:47:26.384Z,3.03
2023-05-14T22:52:27.862Z,2.50
2023-05-14T22:57:29.414Z,2.60
2023-05-14T23:02:30.944Z,2.95
2023-05-14T23:07:32.508Z,3.35
2023-05-14T23:12:34.015Z,2.92
2023-05-14T23:17:35.514Z,3.10
2023-05-14T23:22:37.013Z,2.83
2023-05-14T23:27:38.506Z,2.60
2023-05-14T23:32:39.947Z,2.60
2023-05-14T23:37:46.944Z,3.13
2023-05-14T23:42:48.567Z,2.97
2023-05-14T23:47:50.134Z,2.90
2023-05-14T23:52:52.961Z,4.07
2023-05-14T23:57:54.398Z,3.60
